createdAt,value
2019-04-03T00:01:43.439Z,9.20
2019-04-03T00:04:10.874Z,8.90
2019-04-03T00:06:57.862Z,9.20
2019-04-03T00:09:25.241Z,8.80
2019-04-03T00:11:52.618Z,9.10
2019-04-03T00:14:23.035Z,9.10
2019-04-03T00:16:50.314Z,8.50
2019-04-03T00:19:18.152Z,9.10
2019-04-03T00:21:45.633Z,9.00
2019-04-03T00:24:32.477Z,9.00
2019-04-03T00:26:59.914Z,9.00
2019-04-03T00:29:27.598Z,8.80
2019-04-03T00:31:54.974Z,8.80
2019-04-03T00:34:23.523Z,8.80
2019-04-03T00:40:08.585Z,8.30
2019-04-03T00:42:38.142Z,8.20
2019-04-03T00:45:13.818Z,8.90
2019-04-03T00:47:55.386Z,8.80
2019-04-03T00:50:23.067Z,8.70
2019-04-03T00:52:50.389Z,8.80
2019-04-03T00:55:17.685Z,8.80
2019-04-03T00:57:45.230Z,8.70
2019-04-03T01:00:15.449Z,8.70
2019-04-03T01:02:42.990Z,8.70
2019-04-03T01:05:10.582Z,8.70
2019-04-03T01:07:37.963Z,8.60
2019-04-03T01:10:05.448Z,8.60
2019-04-03T01:12:32.733Z,8.60
2019-04-03T01:15:01.560Z,8.50
2019-04-03T01:17:29.262Z,8.50
2019-04-03T01:19:56.529Z,8.50
2019-04-03T01:22:24.119Z,8.50
2019-04-03T01:24:51.726Z,8.50
2019-04-03T01:27:19.029Z,8.50
2019-04-03T01:29:46.449Z,8.40
2019-04-03T01:32:34.951Z,8.40
2019-04-03T01:35:02.432Z,8.00
2019-04-03T01:37:32.408Z,8.40
2019-04-03T01:40:02.719Z,8.30
2019-04-03T01:42:30.019Z,7.90
2019-04-03T01:47:58.228Z,7.70
2019-04-03T01:50:25.280Z,7.50
2019-04-03T01:52:52.759Z,8.20
2019-04-03T01:55:20.093Z,8.30
2019-04-03T01:57:47.390Z,8.20
2019-04-03T02:00:14.688Z,8.20
2019-04-03T02:03:02.112Z,8.10
2019-04-03T02:05:29.834Z,7.90
2019-04-03T02:08:16.590Z,8.10
2019-04-03T02:10:43.875Z,7.90
2019-04-03T02:13:30.644Z,8.10
2019-04-03T02:16:17.670Z,8.10
2019-04-03T02:18:45.256Z,7.80
2019-04-03T02:21:12.537Z,8.10
2019-04-03T02:23:39.819Z,8.00
2019-04-03T02:26:07.318Z,8.00
2019-04-03T02:28:35.246Z,8.00
2019-04-03T02:31:02.703Z,7.90
2019-04-03T02:33:30.320Z,8.10
2019-04-03T02:35:57.799Z,8.00
2019-04-03T02:38:26.305Z,8.00
2019-04-03T02:40:57.174Z,8.00
2019-04-03T02:43:47.155Z,8.00
2019-04-03T02:46:18.125Z,7.60
2019-04-03T02:49:04.985Z,8.00
2019-04-03T02:51:32.393Z,7.40
2019-04-03T02:54:02.286Z,8.00
2019-04-03T02:56:31.214Z,8.00
2019-04-03T02:59:01.291Z,8.00
2019-04-03T03:01:51.733Z,8.00
2019-04-03T03:04:32.161Z,7.60
2019-04-03T03:07:05.026Z,7.60
2019-04-03T03:09:32.836Z,8.00
2019-04-03T03:12:00.259Z,7.90
2019-04-03T03:14:27.818Z,7.90
2019-04-03T03:16:55.654Z,7.90
2019-04-03T03:19:23.036Z,7.90
2019-04-03T03:21:50.328Z,7.90
2019-04-03T03:24:18.011Z,7.90
2019-04-03T03:26:45.457Z,8.00
2019-04-03T03:29:17.721Z,8.00
2019-04-03T03:32:06.348Z,8.00
2019-04-03T03:34:12.593Z,7.90
2019-04-03T03:36:41.531Z,7.90
2019-04-03T03:39:11.247Z,8.00
2019-04-03T03:41:38.715Z,7.90
2019-04-03T03:44:09.800Z,7.90
2019-04-03T03:46:55.113Z,7.90
2019-04-03T03:49:33.492Z,7.40
2019-04-03T03:52:04.021Z,7.90
2019-04-03T03:54:30.063Z,7.90
2019-04-03T03:56:57.619Z,7.80
2019-04-03T03:59:25.131Z,7.90
2019-04-03T04:01:52.846Z,7.80
2019-04-03T04:04:20.522Z,7.80
2019-04-03T04:06:47.951Z,7.80
2019-04-03T04:09:17.212Z,7.80
2019-04-03T04:11:44.409Z,7.80
2019-04-03T04:14:11.935Z,7.80
2019-04-03T04:16:39.737Z,7.70
2019-04-03T04:19:07.137Z,7.70
2019-04-03T04:21:34.403Z,7.70
2019-04-03T04:24:01.964Z,7.80
2019-04-03T04:26:50.330Z,7.80
2019-04-03T04:29:19.726Z,7.60
2019-04-03T04:31:47.298Z,7.70
2019-04-03T04:34:18.892Z,7.70
2019-04-03T04:37:06.416Z,7.70
2019-04-03T04:39:33.738Z,7.60
2019-04-03T04:42:20.600Z,7.70
2019-04-03T04:44:48.475Z,7.00
2019-04-03T04:47:15.789Z,7.70
2019-04-03T04:50:02.568Z,7.70
2019-04-03T04:52:30.028Z,7.00
2019-04-03T04:54:57.642Z,7.70
2019-04-03T04:57:25.533Z,7.80
2019-04-03T04:59:53.157Z,7.70
2019-04-03T05:02:21.289Z,7.70
2019-04-03T05:05:10.185Z,7.70
2019-04-03T05:10:36.885Z,7.50
2019-04-03T05:15:49.460Z,7.40
2019-04-03T05:18:16.817Z,7.70
2019-04-03T05:21:05.015Z,7.70
2019-04-03T05:23:32.452Z,7.30
2019-04-03T05:26:01.859Z,7.70
2019-04-03T05:28:29.199Z,7.80
2019-04-03T05:31:16.120Z,7.70
2019-04-03T05:33:43.661Z,7.50
2019-04-03T05:36:30.603Z,7.60
2019-04-03T05:38:58.225Z,7.60
2019-04-03T05:41:27.559Z,7.70
2019-04-03T05:44:14.531Z,7.80
2019-04-03T05:49:26.958Z,7.20
2019-04-03T05:51:54.617Z,7.80
2019-04-03T05:54:23.316Z,7.80
2019-04-03T05:56:51.795Z,7.80
2019-04-03T05:59:19.666Z,7.90
2019-04-03T06:02:14.962Z,7.90
2019-04-03T06:04:36.102Z,7.30
2019-04-03T06:07:05.705Z,7.90
2019-04-03T06:09:53.874Z,7.90
2019-04-03T06:12:22.110Z,7.50
2019-04-03T06:15:10.260Z,8.00
2019-04-03T06:17:39.186Z,7.90
2019-04-03T06:20:10.150Z,7.90
2019-04-03T06:22:49.893Z,7.90
2019-04-03T06:25:18.596Z,7.20
2019-04-03T06:28:05.487Z,7.90
2019-04-03T06:30:35.081Z,7.60
2019-04-03T06:33:02.676Z,7.90
2019-04-03T06:35:34.774Z,8.00
2019-04-03T06:38:01.943Z,8.00
2019-04-03T06:40:29.223Z,7.90
2019-04-03T06:42:56.546Z,8.00
2019-04-03T06:45:26.162Z,8.00
2019-04-03T06:47:53.368Z,8.00
2019-04-03T06:50:20.898Z,8.00
2019-04-03T06:52:52.563Z,8.00
2019-04-03T06:55:19.154Z,7.90
2019-04-03T06:58:00.144Z,8.00
2019-04-03T07:00:27.438Z,7.20
2019-04-03T07:02:57.762Z,8.10
2019-04-03T07:05:27.280Z,8.00
2019-04-03T07:07:54.542Z,8.10
2019-04-03T07:10:25.519Z,8.10
2019-04-03T07:12:51.282Z,8.10
2019-04-03T07:15:38.080Z,8.20
2019-04-03T07:18:06.559Z,7.80
2019-04-03T07:20:34.266Z,8.30
2019-04-03T07:23:01.629Z,8.30
2019-04-03T07:25:29.010Z,8.40
2019-04-03T07:27:56.358Z,8.50
2019-04-03T07:30:23.641Z,8.50
2019-04-03T07:32:51.247Z,8.50
2019-04-03T07:35:18.691Z,8.60
2019-04-03T07:37:46.050Z,8.60
2019-04-03T07:40:13.466Z,8.70
2019-04-03T07:42:41.055Z,8.60
2019-04-03T07:45:08.454Z,8.70
2019-04-03T07:47:35.977Z,8.70
2019-04-03T07:50:04.089Z,8.80
2019-04-03T07:52:31.578Z,8.80
2019-04-03T07:54:58.962Z,8.90
2019-04-03T07:57:26.874Z,8.90
2019-04-03T07:59:55.721Z,9.00
2019-04-03T08:02:23.178Z,9.10
2019-04-03T08:04:50.490Z,9.20
2019-04-03T08:07:17.899Z,9.20
2019-04-03T08:10:04.783Z,9.30
2019-04-03T08:12:34.549Z,8.90
2019-04-03T08:15:01.503Z,9.30
2019-04-03T08:17:29.058Z,9.30
2019-04-03T08:19:56.372Z,9.20
2019-04-03T08:22:23.741Z,9.30
2019-04-03T08:24:53.048Z,9.30
2019-04-03T08:27:22.663Z,9.30
2019-04-03T08:29:49.780Z,9.30
2019-04-03T08:32:17.339Z,9.40
2019-04-03T08:34:44.894Z,9.50
2019-04-03T08:37:12.437Z,9.40
2019-04-03T08:39:39.782Z,9.40
2019-04-03T08:42:07.114Z,9.40
2019-04-03T08:44:53.929Z,9.40
2019-04-03T08:47:21.229Z,9.00
2019-04-03T08:50:08.154Z,9.50
2019-04-03T08:52:37.140Z,9.40
2019-04-03T08:55:04.982Z,9.60
2019-04-03T08:57:32.446Z,9.60
2019-04-03T09:00:01.164Z,9.70
2019-04-03T09:02:28.825Z,9.70
2019-04-03T09:04:56.602Z,9.80
2019-04-03T09:07:24.937Z,9.90
2019-04-03T09:09:53.171Z,9.90
2019-04-03T09:12:21.007Z,10.00
2019-04-03T09:14:48.548Z,10.10
2019-04-03T09:17:35.614Z,10.10
2019-04-03T09:20:03.235Z,9.60
2019-04-03T09:22:30.511Z,10.30
2019-04-03T09:24:59.916Z,10.20
2019-04-03T09:27:27.336Z,11.00
2019-04-03T09:29:54.975Z,10.40
2019-04-03T09:32:23.424Z,10.50
2019-04-03T09:34:50.890Z,10.60
2019-04-03T09:37:18.532Z,10.60
2019-04-03T09:39:46.525Z,10.70
2019-04-03T09:42:13.922Z,10.70
2019-04-03T09:45:00.700Z,10.80
2019-04-03T09:47:28.070Z,10.50
2019-04-03T09:49:55.491Z,10.70
2019-04-03T09:52:24.000Z,10.70
2019-04-03T09:54:51.710Z,10.70
2019-04-03T09:57:19.319Z,10.80
2019-04-03T09:59:46.819Z,10.80
2019-04-03T10:02:14.093Z,10.80
2019-04-03T10:04:41.361Z,11.00
2019-04-03T10:07:08.678Z,11.10
2019-04-03T10:09:38.465Z,11.10
2019-04-03T10:12:05.460Z,11.10
2019-04-03T10:14:33.070Z,11.00
2019-04-03T10:17:00.328Z,11.00
2019-04-03T10:19:27.598Z,10.90
2019-04-03T10:21:55.249Z,10.90
2019-04-03T10:24:22.631Z,10.80
2019-04-03T10:27:11.223Z,10.70
2019-04-03T10:29:38.767Z,10.20
2019-04-03T10:32:06.094Z,11.10
2019-04-03T10:34:35.680Z,11.40
2019-04-03T10:37:02.702Z,11.50
2019-04-03T10:39:30.351Z,11.70
2019-04-03T10:42:17.125Z,11.70
2019-04-03T10:44:44.459Z,11.20
2019-04-03T10:47:11.896Z,11.80
2019-04-03T10:49:39.509Z,11.90
2019-04-03T10:52:07.442Z,12.00
2019-04-03T10:54:37.404Z,12.20
2019-04-03T10:57:06.728Z,12.30
2019-04-03T10:59:37.283Z,12.40
2019-04-03T11:02:06.247Z,12.50
2019-04-03T11:04:33.999Z,12.50
2019-04-03T11:07:01.410Z,12.30
2019-04-03T11:09:28.933Z,12.20
2019-04-03T11:11:56.420Z,12.10
2019-04-03T11:14:23.834Z,11.90
2019-04-03T11:16:52.603Z,11.80
2019-04-03T11:19:20.370Z,11.70
2019-04-03T11:21:47.734Z,11.70
2019-04-03T11:24:37.718Z,11.70
2019-04-03T11:29:48.644Z,11.10
2019-04-03T11:32:16.522Z,11.60
2019-04-03T11:34:44.115Z,11.60
2019-04-03T11:37:11.710Z,11.50
2019-04-03T11:40:03.871Z,11.50
2019-04-03T11:42:29.590Z,11.10
2019-04-03T11:44:57.345Z,11.30
2019-04-03T11:47:27.896Z,11.30
2019-04-03T11:49:55.568Z,10.40
2019-04-03T11:52:23.369Z,11.30
2019-04-03T11:54:52.815Z,11.50
2019-04-03T11:57:20.159Z,11.50
2019-04-03T11:59:47.893Z,11.50
2019-04-03T12:02:17.435Z,11.50
2019-04-03T12:04:48.082Z,11.80
2019-04-03T12:07:15.417Z,12.00
2019-04-03T12:09:42.833Z,12.20
2019-04-03T12:12:10.872Z,12.30
2019-04-03T12:14:41.255Z,12.40
2019-04-03T12:17:29.297Z,12.60
2019-04-03T12:20:17.272Z,12.10
2019-04-03T12:22:44.894Z,12.10
2019-04-03T12:25:12.169Z,13.10
2019-04-03T12:27:40.930Z,13.30
2019-04-03T12:30:08.550Z,13.40
2019-04-03T12:32:43.478Z,13.40
2019-04-03T12:35:09.796Z,13.30
2019-04-03T12:37:37.378Z,13.30
2019-04-03T12:40:05.519Z,13.30
2019-04-03T12:42:35.718Z,13.30
2019-04-03T12:45:24.239Z,13.20
2019-04-03T12:48:11.248Z,13.20
2019-04-03T12:50:40.106Z,12.90
2019-04-03T12:53:07.494Z,13.60
2019-04-03T12:55:34.949Z,13.80
2019-04-03T12:58:05.029Z,13.90
2019-04-03T13:00:31.848Z,13.90
2019-04-03T13:02:59.155Z,13.80
2019-04-03T13:05:26.595Z,14.00
2019-04-03T13:07:55.672Z,13.90
2019-04-03T13:10:23.356Z,13.80
2019-04-03T13:12:50.836Z,13.70
2019-04-03T13:15:21.660Z,13.70
2019-04-03T13:18:08.764Z,13.80
2019-04-03T13:20:37.456Z,13.80
2019-04-03T13:25:54.530Z,14.60
2019-04-03T13:28:22.226Z,14.90
2019-04-03T13:30:49.833Z,15.00
2019-04-03T13:33:17.896Z,15.20
2019-04-03T13:35:47.225Z,15.20
2019-04-03T13:38:16.781Z,15.20
2019-04-03T13:40:44.076Z,15.10
2019-04-03T13:43:30.953Z,15.00
2019-04-03T13:45:58.269Z,14.90
2019-04-03T13:48:28.591Z,14.90
2019-04-03T13:50:57.425Z,14.80
2019-04-03T13:53:28.762Z,14.80
2019-04-03T13:55:56.248Z,14.80
2019-04-03T13:58:23.542Z,14.70
2019-04-03T14:00:58.970Z,14.70
2019-04-03T14:03:20.326Z,14.80
2019-04-03T14:05:47.907Z,14.80
2019-04-03T14:08:21.004Z,15.00
2019-04-03T14:11:08.380Z,15.10
2019-04-03T14:13:36.087Z,14.80
2019-04-03T14:16:03.788Z,15.10
2019-04-03T14:18:31.186Z,15.00
2019-04-03T14:20:59.045Z,15.00
2019-04-03T14:23:28.043Z,14.90
2019-04-03T14:26:04.108Z,14.80
2019-04-03T14:28:26.616Z,14.70
2019-04-03T14:30:54.194Z,14.40
2019-04-03T14:33:22.986Z,14.40
2019-04-03T14:35:53.953Z,14.30
2019-04-03T14:38:21.723Z,14.30
2019-04-03T14:40:52.046Z,14.30
2019-04-03T14:43:21.930Z,14.30
2019-04-03T14:45:48.525Z,14.30
2019-04-03T14:48:16.100Z,14.30
2019-04-03T14:50:43.671Z,14.20
2019-04-03T14:53:11.592Z,14.20
2019-04-03T14:55:47.103Z,14.20
2019-04-03T14:58:29.950Z,14.10
2019-04-03T15:01:20.579Z,13.30
2019-04-03T15:04:01.741Z,13.00
2019-04-03T15:06:31.065Z,13.70
2019-04-03T15:08:58.395Z,13.80
2019-04-03T15:11:26.673Z,13.80
2019-04-03T15:13:55.426Z,13.60
2019-04-03T15:16:23.234Z,13.50
2019-04-03T15:18:52.510Z,13.40
2019-04-03T15:21:24.384Z,13.40
2019-04-03T15:23:52.356Z,13.40
2019-04-03T15:26:22.216Z,13.30
2019-04-03T15:28:49.131Z,13.30
2019-04-03T15:31:20.136Z,13.20
2019-04-03T15:33:48.114Z,13.20
2019-04-03T15:36:18.282Z,13.30
2019-04-03T15:38:48.087Z,13.20
2019-04-03T15:41:18.558Z,13.20
2019-04-03T15:43:47.045Z,13.20
2019-04-03T15:46:15.433Z,13.20
2019-04-03T15:48:44.557Z,13.20
2019-04-03T15:51:12.026Z,13.10
2019-04-03T15:53:39.414Z,13.00
2019-04-03T15:56:06.845Z,12.90
2019-04-03T15:58:34.410Z,12.80
2019-04-03T16:01:01.728Z,12.80
2019-04-03T16:03:51.186Z,12.70
2019-04-03T16:06:18.927Z,12.10
2019-04-03T16:08:47.890Z,12.70
2019-04-03T16:11:17.181Z,12.70
2019-04-03T16:13:46.889Z,12.70
2019-04-03T16:16:15.350Z,12.80
2019-04-03T16:18:48.328Z,13.00
2019-04-03T16:21:17.662Z,13.00
2019-04-03T16:23:48.121Z,13.10
2019-04-03T16:26:15.878Z,13.10
2019-04-03T16:28:43.455Z,13.00
2019-04-03T16:31:11.561Z,12.90
2019-04-03T16:33:39.003Z,12.80
2019-04-03T16:36:06.905Z,12.80
2019-04-03T16:38:42.549Z,12.60
2019-04-03T16:41:11.604Z,12.50
2019-04-03T16:43:39.230Z,12.40
2019-04-03T16:46:10.221Z,12.30
2019-04-03T16:48:55.618Z,12.30
2019-04-03T16:51:22.991Z,11.50
2019-04-03T16:53:50.583Z,12.20
2019-04-03T16:56:18.968Z,12.20
2019-04-03T16:58:46.508Z,12.20
2019-04-03T17:01:16.329Z,12.20
2019-04-03T17:03:46.549Z,12.20
2019-04-03T17:06:15.885Z,12.20
2019-04-03T17:09:04.802Z,12.20
2019-04-03T17:11:32.186Z,12.00
2019-04-03T17:13:59.474Z,12.20
2019-04-03T17:16:27.410Z,12.20
2019-04-03T17:18:55.019Z,12.00
2019-04-03T17:21:22.686Z,12.10
2019-04-03T17:23:50.093Z,12.00
2019-04-03T17:26:17.759Z,11.90
2019-04-03T17:28:45.608Z,11.90
2019-04-03T17:31:13.214Z,11.90
2019-04-03T17:33:40.523Z,11.90
2019-04-03T17:36:07.999Z,11.80
2019-04-03T17:38:35.792Z,11.80
2019-04-03T17:41:05.056Z,11.70
2019-04-03T17:43:32.608Z,11.70
2019-04-03T17:45:59.934Z,11.70
2019-04-03T17:48:46.683Z,11.60
2019-04-03T17:51:15.857Z,11.10
2019-04-03T17:53:43.162Z,11.50
2019-04-03T17:56:12.344Z,11.50
2019-04-03T17:58:40.015Z,11.40
2019-04-03T18:01:07.303Z,11.40
2019-04-03T18:03:34.614Z,11.40
2019-04-03T18:06:02.037Z,11.40
2019-04-03T18:08:33.135Z,11.40
2019-04-03T18:11:02.522Z,11.30
2019-04-03T18:13:31.827Z,11.30
2019-04-03T18:15:59.630Z,11.30
2019-04-03T18:18:27.023Z,11.20
2019-04-03T18:20:54.370Z,11.20
2019-04-03T18:23:22.262Z,11.20
2019-04-03T18:25:50.010Z,11.20
2019-04-03T18:28:17.491Z,11.30
2019-04-03T18:30:44.755Z,11.20
2019-04-03T18:33:31.510Z,11.20
2019-04-03T18:35:58.793Z,10.80
2019-04-03T18:38:26.090Z,11.20
2019-04-03T18:40:53.452Z,11.20
2019-04-03T18:43:21.989Z,11.20
2019-04-03T18:45:49.776Z,11.20
2019-04-03T18:48:18.947Z,11.20
2019-04-03T18:50:46.615Z,11.10
2019-04-03T18:53:14.928Z,11.00
2019-04-03T18:55:44.733Z,10.70
2019-04-03T18:58:12.381Z,10.20
2019-04-03T19:00:40.214Z,10.10
2019-04-03T19:03:07.720Z,9.90
2019-04-03T19:05:35.042Z,9.60
2019-04-03T19:08:12.415Z,9.50
2019-04-03T19:10:31.860Z,9.40
2019-04-03T19:12:59.337Z,9.40
2019-04-03T19:15:26.680Z,9.30
2019-04-03T19:17:59.839Z,9.40
2019-04-03T19:20:23.654Z,9.20
2019-04-03T19:23:01.928Z,9.20
2019-04-03T19:25:20.362Z,9.10
2019-04-03T19:27:49.780Z,9.20
2019-04-03T19:30:17.018Z,9.20
2019-04-03T19:32:44.494Z,9.30
2019-04-03T19:35:11.910Z,9.30
2019-04-03T19:37:44.764Z,9.30
2019-04-03T19:40:14.136Z,8.80
2019-04-03T19:42:50.700Z,9.30
2019-04-03T19:45:37.528Z,9.10
2019-04-03T19:48:05.092Z,8.90
2019-04-03T19:50:32.582Z,9.10
2019-04-03T19:53:00.083Z,9.10
2019-04-03T19:55:28.480Z,9.10
2019-04-03T19:57:57.481Z,9.10
2019-04-03T20:00:25.000Z,9.10
2019-04-03T20:02:52.276Z,9.10
2019-04-03T20:05:19.698Z,9.10
2019-04-03T20:07:46.980Z,9.30
2019-04-03T20:10:14.303Z,9.00
2019-04-03T20:12:42.018Z,9.00
2019-04-03T20:15:29.195Z,9.00
2019-04-03T20:17:56.743Z,8.60
2019-04-03T20:20:24.241Z,9.10
2019-04-03T20:22:51.547Z,9.00
2019-04-03T20:25:18.852Z,9.00
2019-04-03T20:28:06.358Z,9.00
2019-04-03T20:30:33.974Z,8.50
2019-04-03T20:33:01.451Z,9.00
2019-04-03T20:35:28.878Z,9.00
2019-04-03T20:37:57.137Z,9.00
2019-04-03T20:40:46.484Z,9.00
2019-04-03T20:43:13.975Z,8.10
2019-04-03T20:45:41.272Z,9.00
2019-04-03T20:48:08.587Z,9.00
2019-04-03T20:50:38.064Z,9.10
2019-04-03T20:53:25.259Z,9.00
2019-04-03T20:55:52.986Z,8.20
2019-04-03T20:58:20.369Z,9.00
2019-04-03T21:00:49.855Z,9.00
2019-04-03T21:03:17.185Z,9.00
2019-04-03T21:06:04.267Z,8.90
2019-04-03T21:08:31.838Z,8.50
2019-04-03T21:11:01.964Z,8.90
2019-04-03T21:13:28.752Z,8.90
2019-04-03T21:15:56.149Z,8.90
2019-04-03T21:18:42.919Z,8.90
2019-04-03T21:21:10.204Z,8.50
2019-04-03T21:23:39.103Z,8.90
2019-04-03T21:26:07.376Z,8.80
2019-04-03T21:28:35.141Z,8.80
2019-04-03T21:31:02.414Z,8.80
2019-04-03T21:33:30.753Z,8.70
2019-04-03T21:36:18.394Z,8.70
2019-04-03T21:38:45.930Z,8.30
2019-04-03T21:41:13.362Z,8.70
2019-04-03T21:43:40.667Z,8.70
2019-04-03T21:46:10.878Z,8.70
2019-04-03T21:48:58.029Z,8.70
2019-04-03T21:51:25.606Z,8.20
2019-04-03T21:53:55.948Z,8.70
2019-04-03T21:56:22.467Z,8.70
2019-04-03T21:58:50.257Z,8.60
2019-04-03T22:01:25.909Z,8.60
2019-04-03T22:03:53.326Z,8.60
2019-04-03T22:06:20.779Z,8.50
2019-04-03T22:08:48.169Z,8.50
2019-04-03T22:11:18.296Z,8.60
2019-04-03T22:13:58.856Z,8.50
2019-04-03T22:16:26.471Z,8.30
2019-04-03T22:18:54.832Z,8.40
2019-04-03T22:21:23.100Z,8.40
2019-04-03T22:23:50.443Z,8.40
2019-04-03T22:26:17.715Z,8.30
2019-04-03T22:28:46.489Z,8.30
2019-04-03T22:31:14.126Z,8.30
2019-04-03T22:33:41.410Z,8.30
2019-04-03T22:36:08.738Z,8.30
2019-04-03T22:38:37.167Z,8.30
2019-04-03T22:41:05.041Z,8.30
2019-04-03T22:43:32.317Z,8.20
2019-04-03T22:45:59.659Z,8.30
2019-04-03T22:48:27.682Z,8.20
2019-04-03T22:50:55.125Z,8.20
2019-04-03T22:53:28.191Z,8.20
2019-04-03T22:55:55.462Z,7.70
2019-04-03T22:58:22.878Z,8.20
2019-04-03T23:00:50.347Z,8.30
2019-04-03T23:03:17.602Z,8.20
2019-04-03T23:05:47.715Z,8.40
2019-04-03T23:08:14.245Z,8.20
2019-04-03T23:10:41.678Z,8.20
2019-04-03T23:13:08.943Z,8.20
2019-04-03T23:15:36.234Z,8.30
2019-04-03T23:18:03.666Z,8.20
2019-04-03T23:20:31.305Z,8.10
2019-04-03T23:22:58.807Z,8.20
2019-04-03T23:25:26.069Z,8.10
2019-04-03T23:27:53.357Z,8.10
2019-04-03T23:30:20.655Z,8.10
2019-04-03T23:32:47.934Z,8.10
2019-04-03T23:35:15.432Z,8.10
2019-04-03T23:37:43.114Z,8.10
2019-04-03T23:40:10.418Z,8.10
2019-04-03T23:42:38.330Z,8.10
2019-04-03T23:45:06.563Z,8.10
2019-04-03T23:47:34.002Z,8.00
2019-04-03T23:50:01.278Z,8.10
2019-04-03T23:52:29.981Z,8.10
2019-04-03T23:54:57.955Z,8.00
2019-04-03T23:57:25.678Z,8.00
2019-04-03T23:59:52.986Z,8.10
